Time;durP1;ratioP1;P1;durP2;ratioP2;P2;SDS_P1;SDS_P2;PMS_P1;PMS_P2;Temp;Humidity;BMP_temperature;BMP_pressure;BME280_temperature;BME280_humidity;BME280_pressure;Samples;Min_cycle;Max_cycle;Signal;HPM_P1;HPM_P2
2021/09/15 00:01:11;;;;;;;;;;;20.70;1.00;;;;;;5011166;28;19909;-64
2021/09/15 00:03:37;;;;;;;;;;;20.70;1.00;;;;;;5010558;28;20254;-64
2021/09/15 00:06:05;;;;;;;;;;;20.70;1.00;;;;;;5011431;28;19920;-64
2021/09/15 00:08:30;;;;;;;;;;;20.70;1.00;;;;;;5011918;28;20026;-63
2021/09/15 00:10:56;;;;;;;;;;;20.70;1.00;;;;;;5011711;28;20008;-63
2021/09/15 00:13:21;;;;;;;;;;;20.70;1.00;;;;;;5011390;28;19968;-64
2021/09/15 00:15:47;;;;;;;;;;;20.70;1.00;;;;;;5011731;28;19913;-64
2021/09/15 00:18:12;;;;;;;;;;;20.70;1.00;;;;;;5011312;28;19917;-64
2021/09/15 00:20:38;;;;;;;;;;;20.60;1.00;;;;;;5011270;28;20004;-64
2021/09/15 00:23:03;;;;;;;;;;;20.60;1.00;;;;;;5010047;28;20035;-64
2021/09/15 00:25:29;;;;;;;;;;;20.60;1.00;;;;;;5015027;28;19979;-64
2021/09/15 00:27:54;;;;;;;;;;;20.60;1.00;;;;;;5011687;28;20247;-64
2021/09/15 00:30:20;;;;;;;;;;;20.60;1.00;;;;;;5010969;28;20416;-64
2021/09/15 00:32:45;;;;;;;;;;;20.60;1.00;;;;;;5010958;28;19914;-64
2021/09/15 00:35:11;;;;;;;;;;;20.60;1.00;;;;;;5010742;28;19920;-63
2021/09/15 00:37:38;;;;;;;;;;;20.70;1.00;;;;;;5011845;28;19910;-63
2021/09/15 00:40:04;;;;;;;;;;;20.60;1.00;;;;;;5011454;28;19917;-62
2021/09/15 00:42:30;;;;;;;;;;;20.70;1.00;;;;;;5010826;28;19918;-65
2021/09/15 00:44:55;;;;;;;;;;;20.70;1.00;;;;;;5011235;28;19914;-65
2021/09/15 00:47:21;;;;;;;;;;;20.70;1.00;;;;;;5010755;28;19913;-64
2021/09/15 00:49:46;;;;;;;;;;;20.70;1.00;;;;;;5010666;28;19917;-64
2021/09/15 00:52:11;;;;;;;;;;;20.70;1.00;;;;;;5010044;28;19916;-64
2021/09/15 00:54:37;;;;;;;;;;;20.70;1.00;;;;;;5010440;28;20005;-64
2021/09/15 00:57:02;;;;;;;;;;;20.70;1.00;;;;;;5011252;28;20242;-63
2021/09/15 00:59:28;;;;;;;;;;;20.60;1.00;;;;;;5010858;28;20024;-64
2021/09/15 01:01:53;;;;;;;;;;;20.60;1.00;;;;;;5007426;28;20402;-64
2021/09/15 01:04:19;;;;;;;;;;;20.60;1.00;;;;;;5009165;28;19921;-64
2021/09/15 01:06:44;;;;;;;;;;;20.60;1.00;;;;;;5010501;28;19913;-64
2021/09/15 01:09:10;;;;;;;;;;;20.60;1.00;;;;;;5009583;28;19916;-64
2021/09/15 01:11:37;;;;;;;;;;;20.50;1.00;;;;;;5010636;28;20439;-64
2021/09/15 01:14:04;;;;;;;;;;;20.50;1.00;;;;;;5009666;28;19928;-65
2021/09/15 01:16:47;;;;;;;;;;;20.40;1.00;;;;;;5010001;28;20008;-65
2021/09/15 01:19:13;;;;;;;;;;;20.40;1.00;;;;;;5009162;28;19913;-65
2021/09/15 01:21:38;;;;;;;;;;;20.30;1.00;;;;;;5009441;28;20011;-63
2021/09/15 01:24:04;;;;;;;;;;;20.20;1.00;;;;;;5009036;28;20021;-65
2021/09/15 01:26:33;;;;;;;;;;;20.20;1.00;;;;;;5010080;28;19913;-65
2021/09/15 01:28:58;;;;;;;;;;;20.10;1.00;;;;;;5009828;28;20004;-64
2021/09/15 01:31:24;;;;;;;;;;;20.10;1.00;;;;;;5009494;28;20353;-65
2021/09/15 01:33:49;;;;;;;;;;;20.00;1.00;;;;;;5008762;28;19958;-65
2021/09/15 01:36:15;;;;;;;;;;;19.90;1.00;;;;;;5009611;28;20275;-63
2021/09/15 01:38:40;;;;;;;;;;;19.90;1.00;;;;;;5009689;28;19944;-62
2021/09/15 01:41:06;;;;;;;;;;;19.90;1.00;;;;;;5010181;28;20011;-64
2021/09/15 01:43:31;;;;;;;;;;;19.90;1.00;;;;;;5008998;28;19925;-64
2021/09/15 01:45:57;;;;;;;;;;;19.80;1.00;;;;;;5009750;28;19909;-64
2021/09/15 01:48:22;;;;;;;;;;;19.80;1.00;;;;;;5009887;28;19913;-65
2021/09/15 01:50:48;;;;;;;;;;;19.80;1.00;;;;;;5009447;28;19910;-64
2021/09/15 01:53:13;;;;;;;;;;;19.70;1.00;;;;;;5009202;28;19948;-64
2021/09/15 01:55:39;;;;;;;;;;;19.70;1.00;;;;;;5008915;28;19910;-65
2021/09/15 01:58:08;;;;;;;;;;;19.80;1.00;;;;;;5009638;28;19979;-65
2021/09/15 02:00:34;;;;;;;;;;;19.70;1.00;;;;;;5008845;28;20358;-64
2021/09/15 02:03:00;;;;;;;;;;;19.70;1.00;;;;;;5008662;28;19921;-65
2021/09/15 02:05:25;;;;;;;;;;;19.60;1.00;;;;;;5008468;28;20290;-64
2021/09/15 02:07:51;;;;;;;;;;;19.60;1.00;;;;;;5009155;28;19936;-65
2021/09/15 02:10:16;;;;;;;;;;;19.60;1.00;;;;;;5008999;28;19974;-65
2021/09/15 02:12:42;;;;;;;;;;;19.60;1.00;;;;;;5008962;28;19917;-65
2021/09/15 02:15:11;;;;;;;;;;;19.60;1.00;;;;;;5008876;28;20349;-65
2021/09/15 02:17:37;;;;;;;;;;;19.60;1.00;;;;;;5009110;28;19963;-65
2021/09/15 02:20:04;;;;;;;;;;;19.50;1.00;;;;;;5008364;28;19913;-65
2021/09/15 02:22:29;;;;;;;;;;;19.50;1.00;;;;;;5008019;28;19918;-65
2021/09/15 02:24:55;;;;;;;;;;;19.50;1.00;;;;;;5008522;28;19909;-65
2021/09/15 02:27:20;;;;;;;;;;;19.40;1.00;;;;;;5009094;28;19916;-64
2021/09/15 02:29:46;;;;;;;;;;;19.40;1.00;;;;;;5008547;28;19910;-65
2021/09/15 02:32:11;;;;;;;;;;;19.30;1.00;;;;;;5007885;28;20450;-65
2021/09/15 02:34:36;;;;;;;;;;;19.30;1.00;;;;;;5008252;28;19935;-64
2021/09/15 02:37:02;;;;;;;;;;;19.20;1.00;;;;;;5008970;28;19910;-65
2021/09/15 02:39:28;;;;;;;;;;;19.20;1.00;;;;;;5008686;28;19932;-64
2021/09/15 02:41:53;;;;;;;;;;;19.20;1.00;;;;;;5008146;28;19920;-64
2021/09/15 02:44:18;;;;;;;;;;;19.20;1.00;;;;;;5008740;28;19917;-64
2021/09/15 02:46:44;;;;;;;;;;;19.10;1.00;;;;;;5008645;28;20306;-64
2021/09/15 02:49:09;;;;;;;;;;;19.10;1.00;;;;;;5008610;28;20012;-64
2021/09/15 02:51:35;;;;;;;;;;;19.10;1.00;;;;;;5008336;28;19914;-64
2021/09/15 02:54:00;;;;;;;;;;;19.10;1.00;;;;;;5007258;28;19910;-64
2021/09/15 02:56:26;;;;;;;;;;;19.10;1.00;;;;;;5008896;28;19956;-65
2021/09/15 02:58:51;;;;;;;;;;;19.10;1.00;;;;;;5008930;28;19916;-64
2021/09/15 03:01:17;;;;;;;;;;;19.20;1.00;;;;;;5008205;28;19910;-65
2021/09/15 03:03:42;;;;;;;;;;;19.20;1.00;;;;;;5007399;28;19921;-64
2021/09/15 03:06:08;;;;;;;;;;;19.20;1.00;;;;;;5008051;28;19920;-64
2021/09/15 03:08:33;;;;;;;;;;;19.20;1.00;;;;;;5008270;28;20354;-64
2021/09/15 03:10:59;;;;;;;;;;;19.20;1.00;;;;;;5008700;28;19917;-64
2021/09/15 03:13:24;;;;;;;;;;;19.20;1.00;;;;;;5007829;28;20028;-62
2021/09/15 03:15:50;;;;;;;;;;;19.20;1.00;;;;;;5008282;28;19933;-63
2021/09/15 03:18:15;;;;;;;;;;;19.20;1.00;;;;;;5008028;28;19917;-64
2021/09/15 03:20:41;;;;;;;;;;;19.20;1.00;;;;;;5007877;28;19928;-65
2021/09/15 03:23:06;;;;;;;;;;;19.20;1.00;;;;;;5007924;28;20343;-64
2021/09/15 03:25:32;;;;;;;;;;;19.20;1.00;;;;;;5012384;28;20070;-64
2021/09/15 03:27:58;;;;;;;;;;;19.20;1.00;;;;;;5012126;28;20428;-62
2021/09/15 03:30:23;;;;;;;;;;;19.20;1.00;;;;;;5011553;28;19924;-64
2021/09/15 03:32:49;;;;;;;;;;;19.20;1.00;;;;;;5011094;28;20362;-65
2021/09/15 03:35:14;;;;;;;;;;;19.20;1.00;;;;;;5011112;28;19913;-64
2021/09/15 03:37:40;;;;;;;;;;;19.20;1.00;;;;;;5012148;28;20350;-65
2021/09/15 03:40:06;;;;;;;;;;;19.20;1.00;;;;;;5011063;28;20482;-65
2021/09/15 03:42:32;;;;;;;;;;;19.20;1.00;;;;;;5011381;28;19913;-64
2021/09/15 03:44:58;;;;;;;;;;;19.20;1.00;;;;;;5011885;28;19910;-65
2021/09/15 03:47:23;;;;;;;;;;;19.20;1.00;;;;;;5011481;28;19909;-63
2021/09/15 03:49:49;;;;;;;;;;;19.20;1.00;;;;;;5011420;28;20365;-64
2021/09/15 03:52:14;;;;;;;;;;;19.20;1.00;;;;;;5010505;28;19910;-65
2021/09/15 03:54:40;;;;;;;;;;;19.20;1.00;;;;;;5011255;28;19917;-65
2021/09/15 03:57:05;;;;;;;;;;;19.20;1.00;;;;;;5011794;28;19987;-65
2021/09/15 03:59:31;;;;;;;;;;;19.20;1.00;;;;;;5011971;28;20238;-64
2021/09/15 04:01:56;;;;;;;;;;;19.20;1.00;;;;;;5010737;28;19909;-64
2021/09/15 04:04:22;;;;;;;;;;;19.20;1.00;;;;;;5010939;28;20013;-64
2021/09/15 04:06:47;;;;;;;;;;;19.20;1.00;;;;;;5010881;28;19932;-64
2021/09/15 04:09:13;;;;;;;;;;;19.20;1.00;;;;;;5011009;28;20293;-65
2021/09/15 04:11:39;;;;;;;;;;;19.20;1.00;;;;;;5011696;28;19940;-65
2021/09/15 04:14:04;;;;;;;;;;;19.20;1.00;;;;;;5010567;28;19917;-64
2021/09/15 04:16:30;;;;;;;;;;;19.20;1.00;;;;;;5010533;28;20319;-66
2021/09/15 04:18:55;;;;;;;;;;;19.20;1.00;;;;;;5010474;28;19925;-64
2021/09/15 04:21:21;;;;;;;;;;;19.20;1.00;;;;;;5010861;28;19910;-64
2021/09/15 04:24:02;;;;;;;;;;;19.20;1.00;;;;;;5009971;28;20784;-65
2021/09/15 04:31:56;;;;;;;;;;;19.20;1.00;;;;;;5006580;28;19935;-62
2021/09/15 04:34:21;;;;;;;;;;;19.20;1.00;;;;;;5007929;28;20017;-65
2021/09/15 04:36:46;;;;;;;;;;;19.30;1.00;;;;;;5009032;28;20014;-65
2021/09/15 04:39:12;;;;;;;;;;;19.30;1.00;;;;;;5009376;28;19932;-65
2021/09/15 04:41:37;;;;;;;;;;;19.20;1.00;;;;;;5010429;28;19909;-65
2021/09/15 04:44:03;;;;;;;;;;;19.20;1.00;;;;;;5009555;28;19955;-65
2021/09/15 04:46:28;;;;;;;;;;;19.20;1.00;;;;;;5010304;28;20484;-66
2021/09/15 04:48:54;;;;;;;;;;;19.20;1.00;;;;;;5007589;28;19909;-63
2021/09/15 04:51:20;;;;;;;;;;;19.20;1.00;;;;;;5007764;28;19936;-65
2021/09/15 04:53:45;;;;;;;;;;;19.20;1.00;;;;;;5006748;28;20244;-65
2021/09/15 04:56:11;;;;;;;;;;;19.20;1.00;;;;;;5007379;28;20398;-64
2021/09/15 04:58:36;;;;;;;;;;;19.30;1.00;;;;;;5007688;28;20001;-64
2021/09/15 05:01:02;;;;;;;;;;;19.30;1.00;;;;;;5007930;28;20016;-64
2021/09/15 05:03:27;;;;;;;;;;;19.30;1.00;;;;;;5010474;28;19913;-64
2021/09/15 05:05:53;;;;;;;;;;;19.30;1.00;;;;;;5007539;28;19913;-63
2021/09/15 05:08:18;;;;;;;;;;;19.30;1.00;;;;;;5008632;28;19910;-64
2021/09/15 05:10:44;;;;;;;;;;;19.30;1.00;;;;;;5008440;28;19917;-64
2021/09/15 05:13:09;;;;;;;;;;;19.30;1.00;;;;;;5007459;28;19971;-64
2021/09/15 05:15:35;;;;;;;;;;;19.30;1.00;;;;;;5007828;28;20664;-63
2021/09/15 05:18:00;;;;;;;;;;;19.30;1.00;;;;;;5008724;28;19936;-63
2021/09/15 05:20:26;;;;;;;;;;;19.30;1.00;;;;;;5006679;28;20365;-70
2021/09/15 05:22:53;;;;;;;;;;;19.30;1.00;;;;;;5007828;28;19917;-67
2021/09/15 05:25:20;;;;;;;;;;;19.30;1.00;;;;;;5007341;28;20298;-66
2021/09/15 05:27:46;;;;;;;;;;;19.30;1.00;;;;;;5008388;28;20294;-65
2021/09/15 05:30:12;;;;;;;;;;;19.40;1.00;;;;;;5007310;28;20004;-65
2021/09/15 05:32:38;;;;;;;;;;;19.40;1.00;;;;;;5006701;28;19909;-65
2021/09/15 05:35:04;;;;;;;;;;;19.40;1.00;;;;;;5006662;28;20024;-66
2021/09/15 05:37:30;;;;;;;;;;;19.40;1.00;;;;;;5007806;28;20482;-64
2021/09/15 05:39:55;;;;;;;;;;;19.40;1.00;;;;;;5007476;28;19910;-65
2021/09/15 05:42:21;;;;;;;;;;;19.40;1.00;;;;;;5007034;28;20513;-66
2021/09/15 05:44:46;;;;;;;;;;;19.50;1.00;;;;;;5007338;28;19913;-63
2021/09/15 05:47:12;;;;;;;;;;;19.50;1.00;;;;;;5006327;28;19951;-64
2021/09/15 05:49:37;;;;;;;;;;;19.50;1.00;;;;;;5005579;28;19909;-65
2021/09/15 05:52:03;;;;;;;;;;;19.60;1.00;;;;;;5005870;28;19920;-62
2021/09/15 05:54:28;;;;;;;;;;;19.50;1.00;;;;;;5005187;28;20060;-63
2021/09/15 05:56:54;;;;;;;;;;;19.40;1.00;;;;;;5006529;28;19913;-65
2021/09/15 05:59:19;;;;;;;;;;;19.40;1.00;;;;;;5007655;28;19909;-66
2021/09/15 06:01:45;;;;;;;;;;;19.30;1.00;;;;;;5010046;28;20641;-64
2021/09/15 06:04:10;;;;;;;;;;;19.30;1.00;;;;;;5006580;28;20019;-64
2021/09/15 06:06:36;;;;;;;;;;;19.30;1.00;;;;;;5006825;28;19988;-65
2021/09/15 06:09:01;;;;;;;;;;;19.30;1.00;;;;;;5004740;28;19909;-65
2021/09/15 06:11:27;;;;;;;;;;;19.30;1.00;;;;;;5006080;28;19998;-65
2021/09/15 06:13:54;;;;;;;;;;;19.20;1.00;;;;;;5006054;28;19968;-65
2021/09/15 06:16:20;;;;;;;;;;;19.30;1.00;;;;;;5006561;28;19917;-66
2021/09/15 06:18:46;;;;;;;;;;;19.20;1.00;;;;;;5005947;28;19924;-66
2021/09/15 06:21:11;;;;;;;;;;;19.10;1.00;;;;;;5006364;28;20243;-64
2021/09/15 06:23:37;;;;;;;;;;;19.00;1.00;;;;;;5006124;28;20301;-65
2021/09/15 06:26:03;;;;;;;;;;;19.10;1.00;;;;;;5006028;28;20288;-63
2021/09/15 06:28:29;;;;;;;;;;;19.20;1.00;;;;;;5006053;28;20120;-65
2021/09/15 06:30:55;;;;;;;;;;;19.30;1.00;;;;;;5006143;28;19957;-64
2021/09/15 06:33:20;;;;;;;;;;;19.30;1.00;;;;;;5004621;28;19988;-65
2021/09/15 06:35:47;;;;;;;;;;;19.40;1.00;;;;;;5005275;28;19961;-64
2021/09/15 06:38:13;;;;;;;;;;;19.40;1.00;;;;;;5009170;28;19917;-65
2021/09/15 06:40:39;;;;;;;;;;;19.60;1.00;;;;;;5009496;28;20449;-65
2021/09/15 06:43:04;;;;;;;;;;;19.60;1.00;;;;;;5009124;28;19921;-65
2021/09/15 06:45:30;;;;;;;;;;;19.60;1.00;;;;;;5008514;28;19928;-65
2021/09/15 06:47:55;;;;;;;;;;;19.60;1.00;;;;;;5009638;28;20258;-65
2021/09/15 06:50:21;;;;;;;;;;;19.70;1.00;;;;;;5008891;28;19948;-65
2021/09/15 06:52:46;;;;;;;;;;;19.60;1.00;;;;;;5009157;28;20434;-65
2021/09/15 06:55:12;;;;;;;;;;;19.70;1.00;;;;;;5009250;28;20023;-65
2021/09/15 06:57:37;;;;;;;;;;;19.70;1.00;;;;;;5009817;28;19973;-65
2021/09/15 07:00:04;;;;;;;;;;;19.70;1.00;;;;;;5007964;28;20064;-65
2021/09/15 07:02:29;;;;;;;;;;;19.80;1.00;;;;;;5011193;28;19968;-65
2021/09/15 07:04:54;;;;;;;;;;;19.90;1.00;;;;;;5012084;28;19952;-65
2021/09/15 07:07:20;;;;;;;;;;;20.00;1.00;;;;;;5012515;28;19960;-64
2021/09/15 07:09:46;;;;;;;;;;;20.10;1.00;;;;;;5012989;28;20389;-65
2021/09/15 07:12:11;;;;;;;;;;;20.10;1.00;;;;;;5012859;28;19913;-65
2021/09/15 07:14:37;;;;;;;;;;;20.30;1.00;;;;;;5073387;22;19982;-66
2021/09/15 07:17:02;;;;;;;;;;;20.30;1.00;;;;;;5048151;28;19924;-65
2021/09/15 07:19:28;;;;;;;;;;;20.40;1.00;;;;;;5052328;28;20038;-65
2021/09/15 07:21:53;;;;;;;;;;;20.40;1.00;;;;;;5053616;28;19908;-65
2021/09/15 07:24:19;;;;;;;;;;;20.50;1.00;;;;;;5053569;28;19917;-67
2021/09/15 07:26:44;;;;;;;;;;;20.40;1.00;;;;;;5054468;28;19912;-65
2021/09/15 07:29:10;;;;;;;;;;;20.50;1.00;;;;;;5054048;28;19909;-65
2021/09/15 07:31:38;;;;;;;;;;;20.50;1.00;;;;;;5053073;28;19966;-64
2021/09/15 07:34:04;;;;;;;;;;;20.60;1.00;;;;;;5065992;28;19948;-65
2021/09/15 07:36:30;;;;;;;;;;;20.60;1.00;;;;;;5072634;28;19916;-64
2021/09/15 07:38:55;;;;;;;;;;;20.70;1.00;;;;;;5072185;28;20318;-64
2021/09/15 07:41:21;;;;;;;;;;;20.90;1.00;;;;;;5072416;28;19957;-66
2021/09/15 07:43:46;;;;;;;;;;;20.90;1.00;;;;;;5071303;28;20268;-65
2021/09/15 07:46:13;;;;;;;;;;;21.00;1.00;;;;;;5072017;28;19921;-65
2021/09/15 07:48:38;;;;;;;;;;;21.00;1.00;;;;;;5072506;28;19912;-65
2021/09/15 07:51:04;;;;;;;;;;;21.10;1.00;;;;;;5071559;28;19908;-65
2021/09/15 07:53:30;;;;;;;;;;;21.10;1.00;;;;;;5071991;28;20349;-66
2021/09/15 07:55:55;;;;;;;;;;;21.00;1.00;;;;;;5071801;28;19944;-65
2021/09/15 07:58:21;;;;;;;;;;;21.00;1.00;;;;;;5072593;28;19995;-66
2021/09/15 08:00:46;;;;;;;;;;;20.90;1.00;;;;;;5070393;28;19915;-67
2021/09/15 08:03:12;;;;;;;;;;;21.00;1.00;;;;;;5070076;28;20077;-65
2021/09/15 08:05:40;;;;;;;;;;;21.00;1.00;;;;;;5069485;28;19916;-67
2021/09/15 08:08:06;;;;;;;;;;;20.90;1.00;;;;;;5072068;28;19916;-67
2021/09/15 08:10:32;;;;;;;;;;;20.90;1.00;;;;;;5071637;28;19908;-66
2021/09/15 08:12:59;;;;;;;;;;;20.90;1.00;;;;;;5067172;28;19919;-66
2021/09/15 08:15:27;;;;;;;;;;;20.90;1.00;;;;;;5051171;28;19917;-66
2021/09/15 08:17:52;;;;;;;;;;;20.90;1.00;;;;;;5051767;28;19909;-66
2021/09/15 08:20:18;;;;;;;;;;;20.80;1.00;;;;;;5050427;28;19913;-66
2021/09/15 08:22:43;;;;;;;;;;;20.90;1.00;;;;;;5051167;28;20003;-66
2021/09/15 08:25:09;;;;;;;;;;;20.90;1.00;;;;;;5050751;28;19939;-66
2021/09/15 08:27:35;;;;;;;;;;;20.90;1.00;;;;;;5051660;28;19944;-68
2021/09/15 08:30:00;;;;;;;;;;;20.90;1.00;;;;;;5051038;28;19928;-66
2021/09/15 08:32:26;;;;;;;;;;;20.90;1.00;;;;;;5050745;28;19909;-66
2021/09/15 08:34:51;;;;;;;;;;;20.90;1.00;;;;;;5071180;28;19908;-66
2021/09/15 08:37:17;;;;;;;;;;;20.90;1.00;;;;;;5071467;28;19909;-65
2021/09/15 08:39:42;;;;;;;;;;;21.00;1.00;;;;;;5070787;28;19912;-67
2021/09/15 08:42:08;;;;;;;;;;;20.90;1.00;;;;;;5070634;28;19916;-66
2021/09/15 08:44:33;;;;;;;;;;;20.90;1.00;;;;;;5070815;28;19976;-65
2021/09/15 08:47:00;;;;;;;;;;;20.90;1.00;;;;;;5071399;28;19920;-65
2021/09/15 08:49:29;;;;;;;;;;;21.10;1.00;;;;;;5070569;28;20061;-65
2021/09/15 08:51:55;;;;;;;;;;;21.30;1.00;;;;;;5070038;28;20311;-65
2021/09/15 08:54:20;;;;;;;;;;;21.40;1.00;;;;;;5070232;28;19912;-65
2021/09/15 08:56:46;;;;;;;;;;;21.90;99.90;;;;;;5070732;28;19970;-65
2021/09/15 08:59:11;;;;;;;;;;;22.60;1.00;;;;;;5071160;28;20276;-65
2021/09/15 09:01:39;;;;;;;;;;;22.80;99.90;;;;;;5064749;28;20662;-65
2021/09/15 09:04:05;;;;;;;;;;;22.80;1.00;;;;;;5049208;28;20389;-65
2021/09/15 09:06:34;;;;;;;;;;;22.80;1.00;;;;;;5049236;28;19916;-65
2021/09/15 09:09:03;;;;;;;;;;;22.80;99.90;;;;;;5049077;28;19916;-65
2021/09/15 09:11:30;;;;;;;;;;;23.00;1.00;;;;;;5050677;28;20106;-65
2021/09/15 09:13:58;;;;;;;;;;;23.60;1.00;;;;;;5047995;28;19921;-65
2021/09/15 09:16:42;;;;;;;;;;;24.50;1.00;;;;;;5049842;28;20323;-65
2021/09/15 09:19:09;;;;;;;;;;;25.10;99.90;;;;;;5050381;28;20048;-65
2021/09/15 09:21:36;;;;;;;;;;;26.40;1.00;;;;;;5050404;28;19915;-67
2021/09/15 09:24:06;;;;;;;;;;;28.10;1.00;;;;;;5048590;28;20106;-66
2021/09/15 09:26:44;;;;;;;;;;;29.10;1.00;;;;;;5050155;28;20315;-66
2021/09/15 09:29:13;;;;;;;;;;;30.20;99.90;;;;;;5050208;28;19909;-66
2021/09/15 09:31:39;;;;;;;;;;;29.70;99.90;;;;;;5050003;28;19920;-66
2021/09/15 09:34:04;;;;;;;;;;;29.20;99.90;;;;;;5063482;28;19908;-66
2021/09/15 09:36:30;;;;;;;;;;;28.30;99.90;;;;;;5070055;28;19958;-66
2021/09/15 09:38:55;;;;;;;;;;;28.10;99.90;;;;;;5070503;28;20007;-66
2021/09/15 09:41:21;;;;;;;;;;;28.90;99.90;;;;;;5070273;28;19909;-66
2021/09/15 09:43:51;;;;;;;;;;;29.70;99.90;;;;;;5068990;28;19916;-66
2021/09/15 09:46:19;;;;;;;;;;;29.90;99.90;;;;;;5069353;28;19908;-66
2021/09/15 09:48:46;;;;;;;;;;;29.40;99.90;;;;;;5069465;28;19909;-67
2021/09/15 09:51:23;;;;;;;;;;;29.20;99.90;;;;;;5069454;28;19920;-66
2021/09/15 09:53:49;;;;;;;;;;;28.90;99.90;;;;;;5068352;28;19912;-66
2021/09/15 09:56:15;;;;;;;;;;;28.50;99.90;;;;;;5069320;28;19991;-66
2021/09/15 09:58:43;;;;;;;;;;;28.10;99.90;;;;;;5069628;28;20065;-66
2021/09/15 10:01:09;;;;;;;;;;;27.70;99.90;;;;;;5069501;28;19916;-66
2021/09/15 10:03:38;;;;;;;;;;;27.20;99.90;;;;;;5069055;28;20279;-66
2021/09/15 10:06:04;;;;;;;;;;;26.90;99.90;;;;;;5067701;28;19915;-72
2021/09/15 10:08:30;;;;;;;;;;;26.60;99.90;;;;;;5069131;28;19912;-66
2021/09/15 10:10:55;;;;;;;;;;;26.40;99.90;;;;;;5068899;28;19920;-66
2021/09/15 10:13:21;;;;;;;;;;;26.30;99.90;;;;;;5062394;28;19971;-66
2021/09/15 10:15:52;;;;;;;;;;;26.20;99.90;;;;;;5049212;28;20004;-66
2021/09/15 10:18:18;;;;;;;;;;;26.30;99.90;;;;;;5049993;28;19913;-66
2021/09/15 10:20:46;;;;;;;;;;;26.50;99.90;;;;;;5048482;28;20263;-66
2021/09/15 10:23:30;;;;;;;;;;;26.50;99.90;;;;;;5048592;28;20006;-66
2021/09/15 10:25:56;;;;;;;;;;;26.70;99.90;;;;;;5049160;28;19917;-66
2021/09/15 10:28:22;;;;;;;;;;;26.80;99.90;;;;;;5049735;28;19959;-66
2021/09/15 10:30:51;;;;;;;;;;;27.20;99.90;;;;;;5048547;28;20020;-65
2021/09/15 10:33:35;;;;;;;;;;;28.10;99.90;;;;;;5055799;28;19962;-66
2021/09/15 10:36:00;;;;;;;;;;;29.00;99.90;;;;;;5068387;28;20273;-66
2021/09/15 10:38:44;;;;;;;;;;;29.80;99.90;;;;;;5068906;28;19913;-66
2021/09/15 10:41:29;;;;;;;;;;;29.90;99.90;;;;;;5069257;28;20245;-66
2021/09/15 10:44:04;;;;;;;;;;;29.90;99.90;;;;;;5067970;28;19919;-66
2021/09/15 10:46:30;;;;;;;;;;;30.60;99.90;;;;;;5068875;28;19909;-66
2021/09/15 10:49:14;;;;;;;;;;;31.90;99.90;;;;;;5068070;28;20398;-66
2021/09/15 10:51:39;;;;;;;;;;;32.70;99.90;;;;;;5068490;28;19999;-66
2021/09/15 10:54:25;;;;;;;;;;;32.90;99.90;;;;;;5068029;28;20631;-66
2021/09/15 10:57:10;;;;;;;;;;;32.80;99.90;;;;;;5068238;28;20415;-66
2021/09/15 10:59:48;;;;;;;;;;;32.00;99.90;;;;;;5068934;28;19915;-66
2021/09/15 11:02:24;;;;;;;;;;;31.50;99.90;;;;;;5067929;28;19912;-66
2021/09/15 11:04:50;;;;;;;;;;;31.20;99.90;;;;;;5066981;28;20003;-66
2021/09/15 11:07:48;;;;;;;;;;;30.80;99.90;;;;;;5068532;28;20007;-66
2021/09/15 11:10:34;;;;;;;;;;;30.50;99.90;;;;;;5056064;28;19992;-67
2021/09/15 11:13:04;;;;;;;;;;;30.70;99.90;;;;;;5064489;28;19919;-67
2021/09/15 11:15:30;;;;;;;;;;;30.60;99.90;;;;;;5048389;28;19917;-66
2021/09/15 11:17:56;;;;;;;;;;;30.40;99.90;;;;;;5048968;28;19913;-67
2021/09/15 11:20:22;;;;;;;;;;;30.00;99.90;;;;;;5047990;28;19916;-67
2021/09/15 11:22:48;;;;;;;;;;;29.50;99.90;;;;;;5048150;28;19917;-67
2021/09/15 11:25:20;;;;;;;;;;;28.90;99.90;;;;;;5047959;28;19920;-67
2021/09/15 11:28:04;;;;;;;;;;;28.50;99.90;;;;;;5048683;28;20347;-66
2021/09/15 11:30:30;;;;;;;;;;;28.10;99.90;;;;;;5028285;28;19909;-66
2021/09/15 11:32:57;;;;;;;;;;;27.90;99.90;;;;;;5036892;28;20279;-66
2021/09/15 11:35:22;;;;;;;;;;;27.90;99.90;;;;;;5068177;28;19947;-66
2021/09/15 11:37:48;;;;;;;;;;;28.30;99.90;;;;;;5068845;28;19927;-66
2021/09/15 11:40:13;;;;;;;;;;;28.50;99.90;;;;;;5067992;28;19912;-66
2021/09/15 11:42:39;;;;;;;;;;;28.70;99.90;;;;;;5067718;28;19919;-65
2021/09/15 11:45:21;;;;;;;;;;;29.00;99.90;;;;;;5067720;28;20345;-65
2021/09/15 11:47:53;;;;;;;;;;;29.10;99.90;;;;;;5384882;22;19924;-66
2021/09/15 11:50:20;;;;;;;;;;;29.30;99.90;;;;;;5047134;28;20033;-68
2021/09/15 11:52:50;;;;;;;;;;;29.40;99.90;;;;;;5049642;28;19921;-66
2021/09/15 11:55:17;;;;;;;;;;;29.30;99.90;;;;;;5050417;28;19928;-67
2021/09/15 11:57:47;;;;;;;;;;;29.30;99.90;;;;;;5033482;28;19909;-67
2021/09/15 12:00:13;;;;;;;;;;;29.10;99.90;;;;;;5039674;28;19924;-71
2021/09/15 12:02:42;;;;;;;;;;;28.80;99.90;;;;;;5050210;28;20626;-70
2021/09/15 12:05:08;;;;;;;;;;;28.30;99.90;;;;;;5048387;28;19916;-68
2021/09/15 12:07:34;;;;;;;;;;;28.10;99.90;;;;;;5049063;28;19982;-67
2021/09/15 12:10:00;;;;;;;;;;;27.90;99.90;;;;;;5047755;28;19909;-68
2021/09/15 12:12:26;;;;;;;;;;;27.80;99.90;;;;;;5049948;28;19917;-70
2021/09/15 12:14:55;;;;;;;;;;;27.80;99.90;;;;;;5050902;28;19912;-69
2021/09/15 12:17:20;;;;;;;;;;;27.80;99.90;;;;;;5047833;28;20360;-69
2021/09/15 12:19:46;;;;;;;;;;;27.60;99.90;;;;;;5050490;28;19970;-68
2021/09/15 12:22:19;;;;;;;;;;;27.50;99.90;;;;;;5038972;28;19917;-70
2021/09/15 12:24:58;;;;;;;;;;;27.40;99.90;;;;;;5047800;28;19920;-74
2021/09/15 12:27:24;;;;;;;;;;;27.20;99.90;;;;;;5048147;28;20007;-69
2021/09/15 12:29:58;;;;;;;;;;;27.10;99.90;;;;;;5050487;28;19991;-70
2021/09/15 12:32:27;;;;;;;;;;;26.80;99.90;;;;;;5050236;28;19933;-66
2021/09/15 12:34:53;;;;;;;;;;;26.60;99.90;;;;;;5050849;28;19920;-68
2021/09/15 12:37:19;;;;;;;;;;;26.30;99.90;;;;;;5050765;28;19913;-66
2021/09/15 12:39:46;;;;;;;;;;;26.10;99.90;;;;;;5051161;28;19916;-66
2021/09/15 12:42:15;;;;;;;;;;;25.80;99.90;;;;;;5050273;28;19916;-67
2021/09/15 12:44:41;;;;;;;;;;;25.70;99.90;;;;;;5051367;28;19917;-65
2021/09/15 12:47:06;;;;;;;;;;;25.80;99.90;;;;;;5050429;28;20381;-66
2021/09/15 12:49:34;;;;;;;;;;;25.80;99.90;;;;;;5050462;28;19920;-66
2021/09/15 12:52:00;;;;;;;;;;;25.50;99.90;;;;;;5049953;28;19909;-66
2021/09/15 12:54:26;;;;;;;;;;;25.30;99.90;;;;;;5050793;28;19919;-67
2021/09/15 12:56:51;;;;;;;;;;;25.40;99.90;;;;;;5050379;28;19913;-67
2021/09/15 12:59:26;;;;;;;;;;;25.60;99.90;;;;;;5048524;28;19916;-67
2021/09/15 13:02:11;;;;;;;;;;;26.10;99.90;;;;;;5045619;28;19977;-65
2021/09/15 13:04:37;;;;;;;;;;;26.60;99.90;;;;;;5041899;28;19980;-66
2021/09/15 13:07:02;;;;;;;;;;;27.00;99.90;;;;;;5048787;28;20003;-67
2021/09/15 13:09:28;;;;;;;;;;;27.10;99.90;;;;;;5050202;28;20285;-67
2021/09/15 13:11:53;;;;;;;;;;;27.30;99.90;;;;;;5049224;28;19909;-68
2021/09/15 13:14:19;;;;;;;;;;;27.50;99.90;;;;;;5037079;28;19987;-66
2021/09/15 13:16:44;;;;;;;;;;;27.50;99.90;;;;;;5029938;28;19924;-66
2021/09/15 13:19:11;;;;;;;;;;;27.70;99.90;;;;;;5030031;28;19910;-64
2021/09/15 13:21:37;;;;;;;;;;;27.90;99.90;;;;;;5029623;28;19920;-66
2021/09/15 13:24:02;;;;;;;;;;;28.00;99.90;;;;;;5033344;28;19913;-66
2021/09/15 13:26:30;;;;;;;;;;;27.90;99.90;;;;;;5049641;28;20357;-69
2021/09/15 13:28:55;;;;;;;;;;;27.80;99.90;;;;;;5050254;28;19932;-67
2021/09/15 13:31:21;;;;;;;;;;;27.70;99.90;;;;;;5050334;28;19916;-66
2021/09/15 13:33:46;;;;;;;;;;;27.60;99.90;;;;;;5060588;28;19913;-67
2021/09/15 13:36:12;;;;;;;;;;;27.60;99.90;;;;;;5070230;28;20389;-66
2021/09/15 13:38:37;;;;;;;;;;;27.50;99.90;;;;;;5069387;28;19912;-66
2021/09/15 13:43:34;;;;;;;;;;;27.50;99.90;;;;;;5029638;28;19962;-68
2021/09/15 13:46:03;;;;;;;;;;;27.40;99.90;;;;;;5303896;22;19970;-67
2021/09/15 13:48:32;;;;;;;;;;;27.30;99.90;;;;;;5071076;28;19965;-66
2021/09/15 13:50:57;;;;;;;;;;;27.30;99.90;;;;;;5069715;28;19908;-66
2021/09/15 13:53:22;;;;;;;;;;;27.50;99.90;;;;;;5068396;28;19909;-66
2021/09/15 13:55:48;;;;;;;;;;;27.60;99.90;;;;;;5068730;28;20336;-66
2021/09/15 13:58:13;;;;;;;;;;;27.60;99.90;;;;;;5068845;28;19999;-65
2021/09/15 14:00:39;;;;;;;;;;;27.60;99.90;;;;;;5066383;28;19912;-66
2021/09/15 14:03:04;;;;;;;;;;;27.40;99.90;;;;;;5066201;28;19916;-67
2021/09/15 14:05:30;;;;;;;;;;;27.20;99.90;;;;;;5068689;28;19917;-64
2021/09/15 14:10:26;;;;;;;;;;;27.10;99.90;;;;;;5044117;28;19925;-66
2021/09/15 14:12:52;;;;;;;;;;;27.10;99.90;;;;;;5047982;28;19978;-66
2021/09/15 14:15:17;;;;;;;;;;;27.00;99.90;;;;;;5068111;28;19966;-66
2021/09/15 14:17:43;;;;;;;;;;;27.10;99.90;;;;;;5068729;28;19999;-66
2021/09/15 14:20:09;;;;;;;;;;;26.80;99.90;;;;;;5068732;28;20412;-66
2021/09/15 14:22:35;;;;;;;;;;;26.60;99.90;;;;;;5067853;28;19920;-67
2021/09/15 14:25:01;;;;;;;;;;;26.50;99.90;;;;;;5056735;28;19983;-67
2021/09/15 14:27:26;;;;;;;;;;;26.50;99.90;;;;;;5057267;28;19948;-65
2021/09/15 14:29:52;;;;;;;;;;;26.20;99.90;;;;;;5029263;28;19917;-66
2021/09/15 14:32:18;;;;;;;;;;;26.00;99.90;;;;;;5028337;28;19913;-66
2021/09/15 14:34:43;;;;;;;;;;;25.90;99.90;;;;;;5048440;28;19909;-67